sensor_id;sensor_type;location;lat;lon;timestamp;temperature;humidity
1411;DHT22;700;51.906;8.404;2022-09-29T00:01:36;11.60;99.90
1411;DHT22;700;51.906;8.404;2022-09-29T00:06:36;11.50;99.90
1411;DHT22;700;51.906;8.404;2022-09-29T00:11:37;11.70;99.90
1411;DHT22;700;51.906;8.404;2022-09-29T00:16:38;11.70;99.90
1411;DHT22;700;51.906;8.404;2022-09-29T00:21:38;11.40;99.90
1411;DHT22;700;51.906;8.404;2022-09-29T00:26:41;11.30;99.90
1411;DHT22;700;51.906;8.404;2022-09-29T00:31:44;11.20;99.90
1411;DHT22;700;51.906;8.404;2022-09-29T00:36:49;11.20;99.90
1411;DHT22;700;51.906;8.404;2022-09-29T00:41:52;11.30;99.90
1411;DHT22;700;51.906;8.404;2022-09-29T00:47:03;11.20;99.90
1411;DHT22;700;51.906;8.404;2022-09-29T00:52:11;11.20;99.90
1411;DHT22;700;51.906;8.404;2022-09-29T00:57:16;11.20;99.90
1411;DHT22;700;51.906;8.404;2022-09-29T01:02:21;11.20;99.90
1411;DHT22;700;51.906;8.404;2022-09-29T01:07:23;11.10;99.90
1411;DHT22;700;51.906;8.404;2022-09-29T01:12:24;11.10;99.90
1411;DHT22;700;51.906;8.404;2022-09-29T01:17:25;11.10;99.90
1411;DHT22;700;51.906;8.404;2022-09-29T01:43:38;10.50;99.90
1411;DHT22;700;51.906;8.404;2022-09-29T01:48:43;10.40;99.90
1411;DHT22;700;51.906;8.404;2022-09-29T01:53:48;10.40;99.90
1411;DHT22;700;51.906;8.404;2022-09-29T01:58:59;10.40;99.90
1411;DHT22;700;51.906;8.404;2022-09-29T02:04:25;10.40;99.90
1411;DHT22;700;51.906;8.404;2022-09-29T02:09:34;10.10;99.90
1411;DHT22;700;51.906;8.404;2022-09-29T02:14:41;9.80;99.90
1411;DHT22;700;51.906;8.404;2022-09-29T02:19:42;9.70;99.90
1411;DHT22;700;51.906;8.404;2022-09-29T02:24:43;9.90;99.90
1411;DHT22;700;51.906;8.404;2022-09-29T02:29:44;9.70;99.90
1411;DHT22;700;51.906;8.404;2022-09-29T02:34:47;9.80;99.90
1411;DHT22;700;51.906;8.404;2022-09-29T02:45:29;9.70;99.90
1411;DHT22;700;51.906;8.404;2022-09-29T02:50:40;9.70;99.90
1411;DHT22;700;51.906;8.404;2022-09-29T03:01:08;9.60;99.90
1411;DHT22;700;51.906;8.404;2022-09-29T03:06:12;9.60;99.90
1411;DHT22;700;51.906;8.404;2022-09-29T03:11:13;9.60;99.90
1411;DHT22;700;51.906;8.404;2022-09-29T03:16:14;9.60;99.90
1411;DHT22;700;51.906;8.404;2022-09-29T03:21:19;9.60;99.90
1411;DHT22;700;51.906;8.404;2022-09-29T03:26:20;9.60;99.90
1411;DHT22;700;51.906;8.404;2022-09-29T03:31:23;9.80;99.90
1411;DHT22;700;51.906;8.404;2022-09-29T03:36:26;9.60;99.90
1411;DHT22;700;51.906;8.404;2022-09-29T03:41:27;9.50;99.90
1411;DHT22;700;51.906;8.404;2022-09-29T03:46:30;9.40;99.90
1411;DHT22;700;51.906;8.404;2022-09-29T03:51:30;9.20;99.90
1411;DHT22;700;51.906;8.404;2022-09-29T03:56:31;9.10;99.90
1411;DHT22;700;51.906;8.404;2022-09-29T04:01:35;9.10;99.90
1411;DHT22;700;51.906;8.404;2022-09-29T04:06:39;9.20;99.90
1411;DHT22;700;51.906;8.404;2022-09-29T04:11:40;9.30;99.90
1411;DHT22;700;51.906;8.404;2022-09-29T04:16:41;9.30;99.90
1411;DHT22;700;51.906;8.404;2022-09-29T04:21:41;9.30;99.90
1411;DHT22;700;51.906;8.404;2022-09-29T04:26:42;9.20;99.90
1411;DHT22;700;51.906;8.404;2022-09-29T04:31:43;9.20;99.90
1411;DHT22;700;51.906;8.404;2022-09-29T04:36:43;9.20;99.90
1411;DHT22;700;51.906;8.404;2022-09-29T04:41:46;9.10;99.90
1411;DHT22;700;51.906;8.404;2022-09-29T04:46:50;9.10;99.90
1411;DHT22;700;51.906;8.404;2022-09-29T04:51:51;8.80;99.90
1411;DHT22;700;51.906;8.404;2022-09-29T04:56:54;8.90;99.90
1411;DHT22;700;51.906;8.404;2022-09-29T05:01:57;8.80;99.90
1411;DHT22;700;51.906;8.404;2022-09-29T05:07:00;8.50;99.90
1411;DHT22;700;51.906;8.404;2022-09-29T05:12:02;8.70;99.90
1411;DHT22;700;51.906;8.404;2022-09-29T05:17:05;8.70;99.90
1411;DHT22;700;51.906;8.404;2022-09-29T05:22:08;8.90;99.90
1411;DHT22;700;51.906;8.404;2022-09-29T05:27:11;8.90;99.90
1411;DHT22;700;51.906;8.404;2022-09-29T05:32:12;8.90;99.90
1411;DHT22;700;51.906;8.404;2022-09-29T05:37:13;8.80;99.90
1411;DHT22;700;51.906;8.404;2022-09-29T05:42:14;8.90;99.90
1411;DHT22;700;51.906;8.404;2022-09-29T05:47:17;8.80;99.90
1411;DHT22;700;51.906;8.404;2022-09-29T05:52:18;8.60;99.90
1411;DHT22;700;51.906;8.404;2022-09-29T05:57:19;8.60;99.90
1411;DHT22;700;51.906;8.404;2022-09-29T06:02:22;8.90;99.90
1411;DHT22;700;51.906;8.404;2022-09-29T06:07:23;9.00;99.90
1411;DHT22;700;51.906;8.404;2022-09-29T06:12:23;9.00;99.90
1411;DHT22;700;51.906;8.404;2022-09-29T06:17:26;9.10;99.90
1411;DHT22;700;51.906;8.404;2022-09-29T06:22:27;9.20;99.90
1411;DHT22;700;51.906;8.404;2022-09-29T06:27:30;9.50;99.90
1411;DHT22;700;51.906;8.404;2022-09-29T06:32:30;9.60;99.90
1411;DHT22;700;51.906;8.404;2022-09-29T06:37:33;9.70;99.90
1411;DHT22;700;51.906;8.404;2022-09-29T06:42:39;9.90;99.90
1411;DHT22;700;51.906;8.404;2022-09-29T06:47:39;10.10;99.90
1411;DHT22;700;51.906;8.404;2022-09-29T06:52:40;10.40;99.90
1411;DHT22;700;51.906;8.404;2022-09-29T06:57:43;10.30;99.90
1411;DHT22;700;51.906;8.404;2022-09-29T07:02:46;10.40;99.90
1411;DHT22;700;51.906;8.404;2022-09-29T07:07:49;10.40;99.90
1411;DHT22;700;51.906;8.404;2022-09-29T07:12:52;10.60;99.90
1411;DHT22;700;51.906;8.404;2022-09-29T07:17:54;10.80;99.90
1411;DHT22;700;51.906;8.404;2022-09-29T07:22:58;11.10;99.90
1411;DHT22;700;51.906;8.404;2022-09-29T07:27:59;11.40;99.90
1411;DHT22;700;51.906;8.404;2022-09-29T07:33:02;11.50;99.90
1411;DHT22;700;51.906;8.404;2022-09-29T07:38:05;11.40;99.90
1411;DHT22;700;51.906;8.404;2022-09-29T07:43:06;11.80;99.90
1411;DHT22;700;51.906;8.404;2022-09-29T07:48:07;12.10;99.90
1411;DHT22;700;51.906;8.404;2022-09-29T07:53:10;12.50;99.90
1411;DHT22;700;51.906;8.404;2022-09-29T07:58:11;12.50;99.90
1411;DHT22;700;51.906;8.404;2022-09-29T08:03:12;12.70;99.90
1411;DHT22;700;51.906;8.404;2022-09-29T08:08:15;12.80;99.90
1411;DHT22;700;51.906;8.404;2022-09-29T08:13:16;13.20;99.90
1411;DHT22;700;51.906;8.404;2022-09-29T08:18:16;13.80;99.90
1411;DHT22;700;51.906;8.404;2022-09-29T08:23:17;14.10;99.90
1411;DHT22;700;51.906;8.404;2022-09-29T08:28:18;14.50;99.90
1411;DHT22;700;51.906;8.404;2022-09-29T08:33:18;14.60;99.90
1411;DHT22;700;51.906;8.404;2022-09-29T08:38:21;14.80;99.90
1411;DHT22;700;51.906;8.404;2022-09-29T08:43:33;14.80;99.90
1411;DHT22;700;51.906;8.404;2022-09-29T08:48:41;15.10;99.90
1411;DHT22;700;51.906;8.404;2022-09-29T08:53:46;15.40;99.90
1411;DHT22;700;51.906;8.404;2022-09-29T08:58:49;15.70;99.90
1411;DHT22;700;51.906;8.404;2022-09-29T09:09:12;15.60;99.90
1411;DHT22;700;51.906;8.404;2022-09-29T09:30:21;24.60;99.90
1411;DHT22;700;51.906;8.404;2022-09-29T09:35:46;30.40;75.10
1411;DHT22;700;51.906;8.404;2022-09-29T09:46:07;35.50;52.60
1411;DHT22;700;51.906;8.404;2022-09-29T09:56:57;44.00;30.50
1411;DHT22;700;51.906;8.404;2022-09-29T10:02:03;44.20;28.60
1411;DHT22;700;51.906;8.404;2022-09-29T10:07:06;41.00;28.70
1411;DHT22;700;51.906;8.404;2022-09-29T10:12:15;40.20;28.30
1411;DHT22;700;51.906;8.404;2022-09-29T10:17:24;36.70;30.20
1411;DHT22;700;51.906;8.404;2022-09-29T10:22:27;33.00;36.30
1411;DHT22;700;51.906;8.404;2022-09-29T10:27:30;30.80;39.50
1411;DHT22;700;51.906;8.404;2022-09-29T10:32:33;29.60;41.90
1411;DHT22;700;51.906;8.404;2022-09-29T10:37:39;28.80;44.10
1411;DHT22;700;51.906;8.404;2022-09-29T10:42:46;26.70;46.90
1411;DHT22;700;51.906;8.404;2022-09-29T10:48:07;25.60;48.80
1411;DHT22;700;51.906;8.404;2022-09-29T10:53:32;28.00;45.80
1411;DHT22;700;51.906;8.404;2022-09-29T10:58:44;33.00;40.10
1411;DHT22;700;51.906;8.404;2022-09-29T11:03:53;31.60;39.30
1411;DHT22;700;51.906;8.404;2022-09-29T11:09:02;27.50;43.70
1411;DHT22;700;51.906;8.404;2022-09-29T11:19:24;23.70;52.60
1411;DHT22;700;51.906;8.404;2022-09-29T11:45:22;20.30;67.50
1411;DHT22;700;51.906;8.404;2022-09-29T12:00:54;22.10;70.90
1411;DHT22;700;51.906;8.404;2022-09-29T12:17:08;21.30;68.60
1411;DHT22;700;51.906;8.404;2022-09-29T12:22:16;21.00;69.70
1411;DHT22;700;51.906;8.404;2022-09-29T12:27:25;20.50;71.00
1411;DHT22;700;51.906;8.404;2022-09-29T12:33:23;20.30;73.80
1411;DHT22;700;51.906;8.404;2022-09-29T12:43:28;21.30;73.00
1411;DHT22;700;51.906;8.404;2022-09-29T12:48:57;20.50;71.50
1411;DHT22;700;51.906;8.404;2022-09-29T12:59:40;19.20;76.10
1411;DHT22;700;51.906;8.404;2022-09-29T13:04:57;19.10;76.70
1411;DHT22;700;51.906;8.404;2022-09-29T13:26:39;29.30;51.30
1411;DHT22;700;51.906;8.404;2022-09-29T13:31:44;33.10;43.20
1411;DHT22;700;51.906;8.404;2022-09-29T13:36:45;34.30;38.90
1411;DHT22;700;51.906;8.404;2022-09-29T13:41:46;36.40;35.30
1411;DHT22;700;51.906;8.404;2022-09-29T13:46:47;36.20;33.90
1411;DHT22;700;51.906;8.404;2022-09-29T13:51:59;36.30;33.80
1411;DHT22;700;51.906;8.404;2022-09-29T14:02:39;29.70;37.90
1411;DHT22;700;51.906;8.404;2022-09-29T14:08:04;27.50;42.80
1411;DHT22;700;51.906;8.404;2022-09-29T14:13:10;26.90;43.80
1411;DHT22;700;51.906;8.404;2022-09-29T14:18:30;27.00;44.30
1411;DHT22;700;51.906;8.404;2022-09-29T14:28:52;27.10;43.90
1411;DHT22;700;51.906;8.404;2022-09-29T14:33:53;25.80;45.20
1411;DHT22;700;51.906;8.404;2022-09-29T14:38:57;25.10;47.30
1411;DHT22;700;51.906;8.404;2022-09-29T14:55:06;24.00;47.20
1411;DHT22;700;51.906;8.404;2022-09-29T15:00:16;23.70;49.20
1411;DHT22;700;51.906;8.404;2022-09-29T15:05:34;23.40;49.30
1411;DHT22;700;51.906;8.404;2022-09-29T15:10:39;22.70;51.30
1411;DHT22;700;51.906;8.404;2022-09-29T15:15:42;22.50;50.50
1411;DHT22;700;51.906;8.404;2022-09-29T15:20:59;22.40;49.80
1411;DHT22;700;51.906;8.404;2022-09-29T15:26:00;22.10;48.90
1411;DHT22;700;51.906;8.404;2022-09-29T15:31:09;21.80;51.30
1411;DHT22;700;51.906;8.404;2022-09-29T15:36:20;21.60;53.50
1411;DHT22;700;51.906;8.404;2022-09-29T15:41:21;21.50;53.50
1411;DHT22;700;51.906;8.404;2022-09-29T15:51:34;21.30;56.40
1411;DHT22;700;51.906;8.404;2022-09-29T15:56:38;21.10;55.50
1411;DHT22;700;51.906;8.404;2022-09-29T16:02:01;20.90;58.40
1411;DHT22;700;51.906;8.404;2022-09-29T16:07:05;20.70;60.70
1411;DHT22;700;51.906;8.404;2022-09-29T16:12:08;20.50;59.60
1411;DHT22;700;51.906;8.404;2022-09-29T16:17:10;20.30;59.20
1411;DHT22;700;51.906;8.404;2022-09-29T16:22:17;19.90;63.60
1411;DHT22;700;51.906;8.404;2022-09-29T16:32:57;19.10;67.30
1411;DHT22;700;51.906;8.404;2022-09-29T16:43:46;18.30;78.80
1411;DHT22;700;51.906;8.404;2022-09-29T16:48:50;17.90;84.10
1411;DHT22;700;51.906;8.404;2022-09-29T16:53:57;17.60;84.60
1411;DHT22;700;51.906;8.404;2022-09-29T16:59:10;17.40;88.00
1411;DHT22;700;51.906;8.404;2022-09-29T17:04:13;17.20;90.30
1411;DHT22;700;51.906;8.404;2022-09-29T17:09:18;16.80;92.80
1411;DHT22;700;51.906;8.404;2022-09-29T17:14:19;16.50;95.70
1411;DHT22;700;51.906;8.404;2022-09-29T17:19:21;16.30;99.30
1411;DHT22;700;51.906;8.404;2022-09-29T17:24:21;16.00;99.90
1411;DHT22;700;51.906;8.404;2022-09-29T17:29:25;15.80;99.90
1411;DHT22;700;51.906;8.404;2022-09-29T17:34:25;15.60;99.90
1411;DHT22;700;51.906;8.404;2022-09-29T17:39:28;15.40;99.90
1411;DHT22;700;51.906;8.404;2022-09-29T17:44:29;15.30;99.90
1411;DHT22;700;51.906;8.404;2022-09-29T17:49:32;15.00;99.90
1411;DHT22;700;51.906;8.404;2022-09-29T17:54:37;14.80;99.90
1411;DHT22;700;51.906;8.404;2022-09-29T17:59:38;14.70;99.90
1411;DHT22;700;51.906;8.404;2022-09-29T18:04:39;14.50;99.90
1411;DHT22;700;51.906;8.404;2022-09-29T18:09:44;14.40;99.90
1411;DHT22;700;51.906;8.404;2022-09-29T18:14:46;14.20;99.90
1411;DHT22;700;51.906;8.404;2022-09-29T18:19:47;14.20;99.90
1411;DHT22;700;51.906;8.404;2022-09-29T18:24:50;14.00;99.90
1411;DHT22;700;51.906;8.404;2022-09-29T18:29:50;13.80;99.90
1411;DHT22;700;51.906;8.404;2022-09-29T18:34:51;13.70;99.90
1411;DHT22;700;51.906;8.404;2022-09-29T18:39:54;13.60;99.90
1411;DHT22;700;51.906;8.404;2022-09-29T18:44:57;13.50;99.90
1411;DHT22;700;51.906;8.404;2022-09-29T18:49:58;13.40;99.90
1411;DHT22;700;51.906;8.404;2022-09-29T18:54:58;13.20;99.90
1411;DHT22;700;51.906;8.404;2022-09-29T18:59:59;13.20;99.90
1411;DHT22;700;51.906;8.404;2022-09-29T19:05:05;13.10;99.90
1411;DHT22;700;51.906;8.404;2022-09-29T19:10:11;12.90;99.90
1411;DHT22;700;51.906;8.404;2022-09-29T19:15:19;12.90;99.90
1411;DHT22;700;51.906;8.404;2022-09-29T19:20:20;12.70;99.90
1411;DHT22;700;51.906;8.404;2022-09-29T19:25:24;12.80;99.90
1411;DHT22;700;51.906;8.404;2022-09-29T19:30:29;12.70;99.90
1411;DHT22;700;51.906;8.404;2022-09-29T19:35:33;12.60;99.90
1411;DHT22;700;51.906;8.404;2022-09-29T19:40:34;12.50;99.90
1411;DHT22;700;51.906;8.404;2022-09-29T19:45:36;12.40;99.90
1411;DHT22;700;51.906;8.404;2022-09-29T19:50:37;12.30;99.90
1411;DHT22;700;51.906;8.404;2022-09-29T19:55:58;12.30;99.90
1411;DHT22;700;51.906;8.404;2022-09-29T20:01:01;12.20;99.90
1411;DHT22;700;51.906;8.404;2022-09-29T20:06:03;12.10;99.90
1411;DHT22;700;51.906;8.404;2022-09-29T20:11:09;11.90;99.90
1411;DHT22;700;51.906;8.404;2022-09-29T20:16:12;11.90;99.90
1411;DHT22;700;51.906;8.404;2022-09-29T20:21:13;11.60;99.90
1411;DHT22;700;51.906;8.404;2022-09-29T20:26:16;11.70;99.90
1411;DHT22;700;51.906;8.404;2022-09-29T20:31:21;11.60;99.90
1411;DHT22;700;51.906;8.404;2022-09-29T20:36:22;11.50;99.90
1411;DHT22;700;51.906;8.404;2022-09-29T20:41:23;11.60;99.90
1411;DHT22;700;51.906;8.404;2022-09-29T20:46:24;11.60;99.90
1411;DHT22;700;51.906;8.404;2022-09-29T20:51:27;11.60;99.90
1411;DHT22;700;51.906;8.404;2022-09-29T20:56:30;11.50;99.90
1411;DHT22;700;51.906;8.404;2022-09-29T21:01:32;11.30;99.90
1411;DHT22;700;51.906;8.404;2022-09-29T21:06:38;11.20;99.90
1411;DHT22;700;51.906;8.404;2022-09-29T21:11:43;11.30;99.90
1411;DHT22;700;51.906;8.404;2022-09-29T21:16:47;11.40;99.90
1411;DHT22;700;51.906;8.404;2022-09-29T21:21:48;11.30;99.90
1411;DHT22;700;51.906;8.404;2022-09-29T21:26:51;11.30;99.90
1411;DHT22;700;51.906;8.404;2022-09-29T21:31:54;11.20;99.90
1411;DHT22;700;51.906;8.404;2022-09-29T21:36:57;11.20;99.90
1411;DHT22;700;51.906;8.404;2022-09-29T21:41:58;10.90;99.90
1411;DHT22;700;51.906;8.404;2022-09-29T21:47:01;10.90;99.90
1411;DHT22;700;51.906;8.404;2022-09-29T21:52:03;10.70;99.90
1411;DHT22;700;51.906;8.404;2022-09-29T21:57:09;10.80;99.90
1411;DHT22;700;51.906;8.404;2022-09-29T22:02:12;10.90;99.90
1411;DHT22;700;51.906;8.404;2022-09-29T22:07:12;10.40;99.90
1411;DHT22;700;51.906;8.404;2022-09-29T22:12:13;10.60;99.90
1411;DHT22;700;51.906;8.404;2022-09-29T22:17:14;10.70;99.90
1411;DHT22;700;51.906;8.404;2022-09-29T22:22:15;10.70;99.90
1411;DHT22;700;51.906;8.404;2022-09-29T22:27:15;10.80;99.90
1411;DHT22;700;51.906;8.404;2022-09-29T22:32:16;10.80;99.90
1411;DHT22;700;51.906;8.404;2022-09-29T22:37:16;10.70;99.90
1411;DHT22;700;51.906;8.404;2022-09-29T22:42:17;10.40;99.90
1411;DHT22;700;51.906;8.404;2022-09-29T22:47:18;10.50;99.90
1411;DHT22;700;51.906;8.404;2022-09-29T22:52:19;10.40;99.90
1411;DHT22;700;51.906;8.404;2022-09-29T22:57:22;10.50;99.90
1411;DHT22;700;51.906;8.404;2022-09-29T23:02:22;10.70;99.90
1411;DHT22;700;51.906;8.404;2022-09-29T23:07:23;10.50;99.90
1411;DHT22;700;51.906;8.404;2022-09-29T23:12:23;10.50;99.90
1411;DHT22;700;51.906;8.404;2022-09-29T23:17:28;10.50;99.90
1411;DHT22;700;51.906;8.404;2022-09-29T23:22:29;10.20;99.90
1411;DHT22;700;51.906;8.404;2022-09-29T23:27:35;10.20;99.90
1411;DHT22;700;51.906;8.404;2022-09-29T23:32:35;10.20;99.90
1411;DHT22;700;51.906;8.404;2022-09-29T23:37:36;10.10;99.90
1411;DHT22;700;51.906;8.404;2022-09-29T23:42:58;10.10;99.90
1411;DHT22;700;51.906;8.404;2022-09-29T23:47:58;10.10;99.90
1411;DHT22;700;51.906;8.404;2022-09-29T23:52:59;10.20;99.90
1411;DHT22;700;51.906;8.404;2022-09-29T23:58:00;10.10;99.90
